createdAt,value
2023-07-23T00:00:49.791Z,74
2023-07-23T00:01:56.516Z,74
2023-07-23T00:03:03.554Z,74
2023-07-23T00:04:10.643Z,74
2023-07-23T00:05:17.269Z,74
2023-07-23T00:06:24.321Z,74
2023-07-23T00:07:31.528Z,74
2023-07-23T00:08:38.576Z,74
2023-07-23T00:09:45.675Z,74
2023-07-23T00:10:52.311Z,74
2023-07-23T00:11:59.378Z,74
2023-07-23T00:13:06.532Z,74
2023-07-23T00:14:13.606Z,75
2023-07-23T00:15:20.663Z,75
2023-07-23T00:16:27.362Z,75
2023-07-23T00:17:34.431Z,75
2023-07-23T00:18:41.505Z,75
2023-07-23T00:19:48.576Z,74
2023-07-23T00:20:55.677Z,74
2023-07-23T00:22:02.284Z,74
2023-07-23T00:23:09.417Z,74
2023-07-23T00:24:16.535Z,74
2023-07-23T00:25:23.546Z,75
2023-07-23T00:26:30.674Z,75
2023-07-23T00:27:37.305Z,75
2023-07-23T00:28:44.384Z,75
2023-07-23T00:29:51.510Z,75
2023-07-23T00:30:58.624Z,75
2023-07-23T00:32:05.717Z,75
2023-07-23T00:33:12.387Z,75
2023-07-23T00:34:19.397Z,75
2023-07-23T00:35:26.530Z,75
2023-07-23T00:36:33.573Z,75
2023-07-23T00:37:40.701Z,75
2023-07-23T00:38:47.316Z,75
2023-07-23T00:39:54.370Z,75
2023-07-23T00:42:08.610Z,75
2023-07-23T00:43:15.759Z,75
2023-07-23T00:44:22.333Z,75
2023-07-23T00:45:29.472Z,75
2023-07-23T00:46:38.011Z,75
2023-07-23T00:47:43.637Z,75
2023-07-23T00:48:50.804Z,75
2023-07-23T00:49:57.319Z,75
2023-07-23T00:52:11.500Z,76
2023-07-23T00:53:18.628Z,76
2023-07-23T00:54:25.232Z,75
2023-07-23T00:55:32.298Z,75
2023-07-23T00:56:39.441Z,75
2023-07-23T00:57:46.520Z,76
2023-07-23T00:58:53.718Z,76
2023-07-23T01:00:00.245Z,76
2023-07-23T01:01:07.391Z,76
2023-07-23T01:02:14.384Z,76
2023-07-23T01:03:21.576Z,76
2023-07-23T01:04:28.715Z,76
2023-07-23T01:05:35.230Z,76
2023-07-23T01:06:42.406Z,76
2023-07-23T01:07:49.438Z,76
2023-07-23T01:08:56.532Z,76
2023-07-23T01:10:03.627Z,76
2023-07-23T01:11:10.257Z,76
2023-07-23T01:12:17.363Z,76
2023-07-23T01:13:24.427Z,76
2023-07-23T01:14:31.590Z,77
2023-07-23T01:15:38.667Z,77
2023-07-23T01:16:45.266Z,77
2023-07-23T01:17:52.343Z,77
2023-07-23T01:18:59.501Z,77
2023-07-23T01:20:06.629Z,77
2023-07-23T01:21:13.660Z,77
2023-07-23T01:22:20.257Z,77
2023-07-23T01:23:27.361Z,77
2023-07-23T01:24:34.576Z,77
2023-07-23T01:25:41.549Z,77
2023-07-23T01:26:48.708Z,77
2023-07-23T01:27:55.783Z,77
2023-07-23T01:29:02.351Z,77
2023-07-23T01:30:09.506Z,77
2023-07-23T01:31:16.702Z,77
2023-07-23T01:32:23.761Z,77
2023-07-23T01:33:30.262Z,78
2023-07-23T01:34:37.432Z,78
2023-07-23T01:35:44.464Z,78
2023-07-23T01:36:51.582Z,78
2023-07-23T01:37:58.709Z,78
2023-07-23T01:39:05.314Z,78
2023-07-23T01:40:12.354Z,78
2023-07-23T01:41:19.474Z,78
2023-07-23T01:42:26.598Z,78
2023-07-23T01:43:33.679Z,78
2023-07-23T01:44:40.290Z,78
2023-07-23T01:45:47.385Z,78
2023-07-23T01:46:54.557Z,78
2023-07-23T01:48:01.610Z,78
2023-07-23T01:49:08.715Z,78
2023-07-23T01:50:15.360Z,79
2023-07-23T01:51:22.395Z,79
2023-07-23T01:52:29.515Z,79
2023-07-23T01:53:36.594Z,79
2023-07-23T01:55:50.359Z,79
2023-07-23T01:56:57.392Z,79
2023-07-23T01:58:04.491Z,79
2023-07-23T01:59:11.616Z,79
2023-07-23T02:00:18.741Z,79
2023-07-23T02:01:25.378Z,79
2023-07-23T02:02:32.412Z,79
2023-07-23T02:03:40.149Z,79
2023-07-23T02:04:46.631Z,79
2023-07-23T02:05:53.689Z,79
2023-07-23T02:07:00.301Z,79
2023-07-23T02:08:07.420Z,79
2023-07-23T02:10:21.656Z,79
2023-07-23T02:11:29.006Z,79
2023-07-23T02:12:35.332Z,79
2023-07-23T02:13:42.414Z,79
2023-07-23T02:14:49.529Z,80
2023-07-23T02:15:56.633Z,80
2023-07-23T02:17:03.209Z,80
2023-07-23T02:18:10.382Z,80
2023-07-23T02:19:17.435Z,81
2023-07-23T02:20:24.532Z,81
2023-07-23T02:21:31.732Z,81
2023-07-23T02:22:38.183Z,81
2023-07-23T02:23:45.334Z,81
2023-07-23T02:24:52.533Z,81
2023-07-23T02:25:59.566Z,82
2023-07-23T02:27:06.640Z,82
2023-07-23T02:28:13.262Z,82
2023-07-23T02:29:20.316Z,82
2023-07-23T02:30:27.490Z,82
2023-07-23T02:31:34.513Z,82
2023-07-23T02:32:41.656Z,82
2023-07-23T02:33:48.193Z,82
2023-07-23T02:34:55.396Z,83
2023-07-23T02:36:02.448Z,83
2023-07-23T02:37:09.571Z,83
2023-07-23T02:38:16.826Z,83
2023-07-23T02:39:23.252Z,83
2023-07-23T02:40:30.328Z,83
2023-07-23T02:41:37.456Z,83
2023-07-23T02:42:44.552Z,83
2023-07-23T02:43:51.688Z,83
2023-07-23T02:44:58.390Z,83
2023-07-23T02:46:05.939Z,83
2023-07-23T02:47:12.477Z,83
2023-07-23T02:48:19.613Z,83
2023-07-23T02:49:26.715Z,83
2023-07-23T02:50:33.280Z,83
2023-07-23T02:51:40.342Z,83
2023-07-23T02:52:47.462Z,83
2023-07-23T02:53:54.602Z,83
2023-07-23T02:55:01.662Z,83
2023-07-23T02:56:08.278Z,83
2023-07-23T02:57:15.402Z,83
2023-07-23T02:59:29.642Z,83
2023-07-23T03:00:36.714Z,83
2023-07-23T03:01:43.281Z,83
2023-07-23T03:02:50.584Z,83
2023-07-23T03:03:57.552Z,83
2023-07-23T03:05:04.638Z,83
2023-07-23T03:06:11.682Z,83
2023-07-23T03:07:18.282Z,83
2023-07-23T03:08:25.396Z,83
2023-07-23T03:09:32.499Z,83
2023-07-23T03:10:39.613Z,83
2023-07-23T03:11:46.733Z,83
2023-07-23T03:12:53.257Z,83
2023-07-23T03:14:00.442Z,83
2023-07-23T03:15:07.514Z,83
2023-07-23T03:16:14.622Z,83
2023-07-23T03:17:22.252Z,83
2023-07-23T03:18:28.297Z,83
2023-07-23T03:19:35.512Z,83
2023-07-23T03:20:42.476Z,83
2023-07-23T03:21:49.601Z,83
2023-07-23T03:22:56.214Z,83
2023-07-23T03:24:03.292Z,83
2023-07-23T03:25:10.402Z,83
2023-07-23T03:26:17.514Z,83
2023-07-23T03:27:24.662Z,83
2023-07-23T03:28:31.182Z,83
2023-07-23T03:29:38.319Z,83
2023-07-23T03:30:45.463Z,83
2023-07-23T03:31:52.553Z,83
2023-07-23T03:32:59.699Z,83
2023-07-23T03:34:06.228Z,83
2023-07-23T03:35:13.450Z,83
2023-07-23T03:36:20.400Z,82
2023-07-23T03:38:34.629Z,83
2023-07-23T03:39:41.203Z,82
2023-07-23T03:40:48.349Z,82
2023-07-23T03:41:55.482Z,83
2023-07-23T03:43:02.501Z,82
2023-07-23T03:44:09.649Z,82
2023-07-23T03:45:16.344Z,82
2023-07-23T03:46:23.382Z,82
2023-07-23T03:47:30.443Z,82
2023-07-23T03:48:37.589Z,82
2023-07-23T03:49:44.641Z,82
2023-07-23T03:50:51.326Z,82
2023-07-23T03:51:58.350Z,82
2023-07-23T03:53:05.464Z,82
2023-07-23T03:54:12.524Z,82
2023-07-23T03:55:19.745Z,82
2023-07-23T03:56:26.275Z,82
2023-07-23T03:57:35.158Z,82
2023-07-23T03:58:40.440Z,82
2023-07-23T03:59:47.669Z,83
2023-07-23T04:00:54.678Z,83
2023-07-23T04:03:08.415Z,83
2023-07-23T04:04:15.480Z,82
2023-07-23T04:05:22.546Z,82
2023-07-23T04:06:29.698Z,82
2023-07-23T04:07:36.281Z,82
2023-07-23T04:08:43.368Z,82
2023-07-23T04:09:50.547Z,82
2023-07-23T04:10:57.613Z,82
2023-07-23T04:12:04.675Z,82
2023-07-23T04:13:11.243Z,82
2023-07-23T04:14:18.907Z,82
2023-07-23T04:15:25.486Z,82
2023-07-23T04:16:32.655Z,82
2023-07-23T04:17:39.706Z,82
2023-07-23T04:18:46.302Z,82
2023-07-23T04:19:53.444Z,82
2023-07-23T04:21:00.691Z,82
2023-07-23T04:22:07.593Z,82
2023-07-23T04:23:14.710Z,82
2023-07-23T04:24:21.272Z,82
2023-07-23T04:25:28.396Z,82
2023-07-23T04:26:35.537Z,82
2023-07-23T04:27:42.577Z,82
2023-07-23T04:28:49.724Z,82
2023-07-23T04:29:56.313Z,82
2023-07-23T04:31:03.443Z,82
2023-07-23T04:32:10.482Z,82
2023-07-23T04:33:17.616Z,82
2023-07-23T04:34:24.720Z,82
2023-07-23T04:35:31.284Z,82
2023-07-23T04:36:38.459Z,82
2023-07-23T04:37:45.524Z,82
2023-07-23T04:38:52.599Z,82
2023-07-23T04:39:59.201Z,82
2023-07-23T04:41:06.326Z,82
2023-07-23T04:42:13.403Z,82
2023-07-23T04:43:20.500Z,82
2023-07-23T04:44:27.664Z,82
2023-07-23T04:45:34.242Z,82
2023-07-23T04:46:41.285Z,82
2023-07-23T04:47:48.470Z,82
2023-07-23T04:48:55.516Z,82
2023-07-23T04:50:02.612Z,82
2023-07-23T04:51:09.223Z,82
2023-07-23T04:52:16.330Z,82
2023-07-23T04:53:23.435Z,82
2023-07-23T04:54:30.512Z,82
2023-07-23T04:55:37.647Z,82
2023-07-23T04:56:44.197Z,82
2023-07-23T04:57:51.331Z,82
2023-07-23T04:58:58.484Z,82
2023-07-23T05:00:05.585Z,82
2023-07-23T05:01:12.703Z,82
2023-07-23T05:02:19.253Z,81
2023-07-23T05:03:26.374Z,81
2023-07-23T05:04:33.463Z,81
2023-07-23T05:06:47.658Z,81
2023-07-23T05:07:54.259Z,81
2023-07-23T05:09:01.338Z,81
2023-07-23T05:10:08.503Z,81
2023-07-23T05:11:15.560Z,81
2023-07-23T05:12:22.718Z,81
2023-07-23T05:13:29.285Z,81
2023-07-23T05:14:36.386Z,81
2023-07-23T05:15:43.534Z,81
2023-07-23T05:16:50.522Z,81
2023-07-23T05:17:57.708Z,81
2023-07-23T05:19:04.229Z,81
2023-07-23T05:20:11.400Z,81
2023-07-23T05:21:18.464Z,81
2023-07-23T05:22:25.597Z,82
2023-07-23T05:23:32.698Z,81
2023-07-23T05:24:39.307Z,82
2023-07-23T05:25:46.425Z,81
2023-07-23T05:26:53.482Z,81
2023-07-23T05:28:00.589Z,81
2023-07-23T05:29:07.668Z,82
2023-07-23T05:30:14.234Z,81
2023-07-23T05:31:21.359Z,81
2023-07-23T05:32:28.554Z,81
2023-07-23T05:33:35.588Z,81
2023-07-23T05:34:42.708Z,81
2023-07-23T05:35:49.288Z,81
2023-07-23T05:36:56.404Z,81
2023-07-23T05:38:03.476Z,81
2023-07-23T05:39:10.576Z,81
2023-07-23T05:40:17.700Z,81
2023-07-23T05:41:24.249Z,81
2023-07-23T05:42:31.880Z,81
2023-07-23T05:43:40.295Z,81
2023-07-23T05:44:45.631Z,81
2023-07-23T05:45:52.144Z,81
2023-07-23T05:46:59.293Z,81
2023-07-23T05:48:06.467Z,81
2023-07-23T05:49:13.492Z,81
2023-07-23T05:50:20.648Z,81
2023-07-23T05:51:27.577Z,81
2023-07-23T05:52:34.262Z,81
2023-07-23T05:53:41.459Z,80
2023-07-23T05:54:48.550Z,80
2023-07-23T05:55:55.615Z,80
2023-07-23T05:57:02.152Z,80
2023-07-23T05:58:09.297Z,80
2023-07-23T05:59:16.437Z,80
2023-07-23T06:00:23.501Z,80
2023-07-23T06:01:30.798Z,80
2023-07-23T06:02:37.258Z,80
2023-07-23T06:03:53.666Z,80
2023-07-23T06:04:51.431Z,80
2023-07-23T06:05:58.567Z,80
2023-07-23T06:07:05.644Z,80
2023-07-23T06:08:12.178Z,80
2023-07-23T06:10:26.508Z,80
2023-07-23T06:11:36.825Z,80
2023-07-23T06:12:40.631Z,80
2023-07-23T06:13:47.224Z,80
2023-07-23T06:14:54.336Z,80
2023-07-23T06:16:01.460Z,80
2023-07-23T06:17:08.584Z,80
2023-07-23T06:18:15.663Z,80
2023-07-23T06:19:22.204Z,80
2023-07-23T06:20:29.373Z,80
2023-07-23T06:21:36.495Z,80
2023-07-23T06:22:43.545Z,80
2023-07-23T06:23:50.633Z,80
2023-07-23T06:24:57.288Z,80
2023-07-23T06:26:04.339Z,80
2023-07-23T06:27:11.440Z,80
2023-07-23T06:28:19.091Z,80
2023-07-23T06:29:25.146Z,80
2023-07-23T06:30:32.271Z,80
2023-07-23T06:31:39.376Z,80
2023-07-23T06:32:46.515Z,80
2023-07-23T06:35:02.991Z,81
2023-07-23T06:36:07.274Z,80
2023-07-23T06:37:14.345Z,80
2023-07-23T06:38:21.446Z,80
2023-07-23T06:39:28.580Z,80
2023-07-23T06:40:35.192Z,80
2023-07-23T06:41:42.249Z,79
2023-07-23T06:42:49.377Z,79
2023-07-23T06:43:56.487Z,79
2023-07-23T06:45:03.657Z,79
2023-07-23T06:46:10.689Z,78
2023-07-23T06:47:17.287Z,78
2023-07-23T06:48:24.473Z,78
2023-07-23T06:49:31.531Z,78
2023-07-23T06:50:38.628Z,78
2023-07-23T06:51:45.717Z,78
2023-07-23T06:52:52.244Z,78
2023-07-23T06:53:59.395Z,78
2023-07-23T06:55:06.520Z,78
2023-07-23T06:56:13.576Z,78
2023-07-23T06:57:20.197Z,78
2023-07-23T06:58:27.282Z,78
2023-07-23T06:59:34.443Z,78
2023-07-23T07:00:41.476Z,78
2023-07-23T07:01:48.668Z,77
2023-07-23T07:02:55.188Z,77
2023-07-23T07:04:02.266Z,77
2023-07-23T07:05:09.445Z,77
2023-07-23T07:06:16.535Z,77
2023-07-23T07:07:23.628Z,77
2023-07-23T07:08:30.263Z,77
2023-07-23T07:09:37.295Z,77
2023-07-23T07:10:44.964Z,77
2023-07-23T07:11:51.532Z,77
2023-07-23T07:14:05.191Z,77
2023-07-23T07:15:12.276Z,78
2023-07-23T07:16:19.471Z,79
2023-07-23T07:17:26.540Z,79
2023-07-23T07:18:33.594Z,80
2023-07-23T07:19:40.244Z,80
2023-07-23T07:20:47.348Z,80
2023-07-23T07:21:54.422Z,80
2023-07-23T07:23:01.486Z,79
2023-07-23T07:24:08.658Z,78
2023-07-23T07:25:15.362Z,78
2023-07-23T07:26:22.301Z,77
2023-07-23T07:27:29.491Z,77
2023-07-23T07:28:36.657Z,77
2023-07-23T07:29:43.645Z,76
2023-07-23T07:30:50.207Z,76
2023-07-23T07:31:57.398Z,76
2023-07-23T07:33:04.453Z,76
2023-07-23T07:34:11.538Z,76
2023-07-23T07:35:18.717Z,76
2023-07-23T07:36:25.332Z,76
2023-07-23T07:37:32.319Z,76
2023-07-23T07:38:39.486Z,76
2023-07-23T07:39:46.561Z,76
2023-07-23T07:40:53.662Z,76
2023-07-23T07:42:00.289Z,75
2023-07-23T07:43:07.375Z,75
2023-07-23T07:44:14.426Z,75
2023-07-23T07:45:21.537Z,75
2023-07-23T07:46:28.751Z,75
2023-07-23T07:47:35.296Z,74
2023-07-23T07:48:42.326Z,74
2023-07-23T07:49:49.501Z,74
2023-07-23T07:50:56.617Z,74
2023-07-23T07:52:03.150Z,74
2023-07-23T07:53:10.258Z,74
2023-07-23T07:54:17.380Z,74
2023-07-23T07:55:24.479Z,74
2023-07-23T07:56:31.549Z,74
2023-07-23T07:57:38.698Z,74
2023-07-23T07:58:45.305Z,74
2023-07-23T07:59:52.414Z,74
2023-07-23T08:00:59.461Z,74
2023-07-23T08:03:13.366Z,73
2023-07-23T08:04:20.423Z,73
2023-07-23T08:05:27.529Z,73
2023-07-23T08:06:34.456Z,72
2023-07-23T08:07:41.548Z,71
2023-07-23T08:08:48.219Z,70
2023-07-23T08:09:55.325Z,70
2023-07-23T08:11:02.398Z,70
2023-07-23T08:12:09.540Z,69
2023-07-23T08:13:16.576Z,68
2023-07-23T08:14:23.155Z,68
2023-07-23T08:15:30.282Z,68
2023-07-23T08:17:44.499Z,67
2023-07-23T08:18:51.636Z,67
2023-07-23T08:19:58.178Z,66
2023-07-23T08:21:05.354Z,65
2023-07-23T08:22:12.394Z,65
2023-07-23T08:23:19.519Z,65
2023-07-23T08:24:26.602Z,64
2023-07-23T08:25:33.306Z,63
2023-07-23T08:26:40.296Z,63
2023-07-23T08:27:47.451Z,62
2023-07-23T08:28:54.479Z,62
2023-07-23T08:30:01.620Z,62
2023-07-23T08:31:08.238Z,62
2023-07-23T08:32:15.364Z,61
2023-07-23T08:33:22.525Z,61
2023-07-23T08:34:29.533Z,62
2023-07-23T08:35:36.736Z,61
2023-07-23T08:36:43.203Z,61
2023-07-23T08:37:50.350Z,60
2023-07-23T08:38:57.965Z,61
2023-07-23T08:40:04.524Z,60
2023-07-23T08:41:11.615Z,60
2023-07-23T08:42:18.232Z,60
2023-07-23T08:43:25.383Z,60
2023-07-23T08:44:32.434Z,60
2023-07-23T08:45:39.640Z,59
2023-07-23T08:46:46.688Z,59
2023-07-23T08:47:53.265Z,59
2023-07-23T08:49:00.337Z,59
2023-07-23T08:50:07.456Z,59
2023-07-23T08:51:14.510Z,59
2023-07-23T08:52:21.132Z,59
2023-07-23T08:53:28.265Z,58
2023-07-23T08:54:35.369Z,58
2023-07-23T08:55:42.455Z,57
2023-07-23T08:56:49.622Z,56
2023-07-23T08:57:56.127Z,56
2023-07-23T08:59:03.252Z,55
2023-07-23T09:00:10.359Z,56
2023-07-23T09:01:17.530Z,56
2023-07-23T09:02:24.579Z,57
2023-07-23T09:03:31.134Z,57
2023-07-23T09:04:38.295Z,56
2023-07-23T09:05:45.396Z,56
2023-07-23T09:06:52.443Z,56
2023-07-23T09:07:59.566Z,56
2023-07-23T09:09:06.148Z,56
2023-07-23T09:10:13.218Z,56
2023-07-23T09:11:20.409Z,56
2023-07-23T09:12:27.474Z,56
2023-07-23T09:13:34.551Z,54
2023-07-23T09:14:41.146Z,54
2023-07-23T09:15:48.264Z,54
2023-07-23T09:16:55.452Z,53
2023-07-23T09:18:02.508Z,53
2023-07-23T09:19:09.683Z,54
2023-07-23T09:21:23.308Z,55
2023-07-23T09:22:30.380Z,55
2023-07-23T09:23:40.349Z,56
2023-07-23T09:24:44.707Z,57
2023-07-23T09:25:51.230Z,55
2023-07-23T09:26:58.291Z,55
2023-07-23T09:28:05.405Z,54
2023-07-23T09:29:12.484Z,54
2023-07-23T09:31:26.479Z,54
2023-07-23T09:32:33.307Z,54
2023-07-23T09:33:40.362Z,54
2023-07-23T09:34:47.528Z,54
2023-07-23T09:35:54.618Z,54
2023-07-23T09:37:01.175Z,54
2023-07-23T09:38:08.302Z,54
2023-07-23T09:39:15.403Z,54
2023-07-23T09:40:22.475Z,54
2023-07-23T09:41:29.363Z,54
2023-07-23T09:42:36.200Z,54
2023-07-23T09:43:43.447Z,54
2023-07-23T09:44:50.392Z,54
2023-07-23T09:45:57.585Z,54
2023-07-23T09:47:04.616Z,54
2023-07-23T09:48:17.092Z,54
2023-07-23T09:49:18.317Z,54
2023-07-23T09:50:25.429Z,54
2023-07-23T09:51:32.524Z,54
2023-07-23T09:52:39.640Z,54
2023-07-23T09:53:46.209Z,54
2023-07-23T09:54:53.312Z,54
2023-07-23T09:56:00.450Z,54
2023-07-23T09:57:07.536Z,54
2023-07-23T09:58:14.634Z,54
2023-07-23T09:59:21.207Z,54
2023-07-23T10:00:28.327Z,55
2023-07-23T10:01:35.440Z,54
2023-07-23T10:02:42.693Z,54
2023-07-23T10:03:49.122Z,54
2023-07-23T10:04:56.239Z,55
2023-07-23T10:06:03.363Z,55
2023-07-23T10:07:10.964Z,55
2023-07-23T10:08:17.556Z,56
2023-07-23T10:09:24.090Z,56
2023-07-23T10:10:31.204Z,56
2023-07-23T10:11:38.361Z,56
2023-07-23T10:12:45.450Z,55
2023-07-23T10:13:52.528Z,56
2023-07-23T10:14:59.152Z,56
2023-07-23T10:17:13.327Z,56
2023-07-23T10:18:20.496Z,56
2023-07-23T10:19:28.193Z,56
2023-07-23T10:20:34.128Z,56
2023-07-23T10:21:41.257Z,56
2023-07-23T10:22:48.373Z,56
2023-07-23T10:25:02.544Z,55
2023-07-23T10:26:09.199Z,55
2023-07-23T10:27:16.308Z,55
2023-07-23T10:28:23.351Z,55
2023-07-23T10:29:30.439Z,56
2023-07-23T10:30:37.622Z,56
2023-07-23T10:31:44.145Z,56
2023-07-23T10:32:51.283Z,56
2023-07-23T10:33:58.350Z,56
2023-07-23T10:35:05.501Z,56
2023-07-23T10:36:12.571Z,56
2023-07-23T10:37:21.702Z,56
2023-07-23T10:38:26.281Z,56
2023-07-23T10:39:33.361Z,56
2023-07-23T10:40:40.560Z,56
2023-07-23T10:41:47.600Z,56
2023-07-23T10:42:54.178Z,56
2023-07-23T10:44:01.267Z,56
2023-07-23T10:45:08.393Z,55
2023-07-23T10:46:15.597Z,55
2023-07-23T10:47:22.649Z,55
2023-07-23T10:48:29.223Z,54
2023-07-23T10:49:36.314Z,54
2023-07-23T10:50:43.422Z,54
2023-07-23T10:51:50.464Z,54
2023-07-23T10:52:57.604Z,54
2023-07-23T10:54:04.349Z,54
2023-07-23T10:55:13.533Z,54
2023-07-23T10:56:18.527Z,54
2023-07-23T10:57:25.498Z,54
2023-07-23T10:59:39.207Z,55
2023-07-23T11:00:46.319Z,56
2023-07-23T11:01:53.473Z,56
2023-07-23T11:03:00.634Z,55
2023-07-23T11:04:07.649Z,55
2023-07-23T11:05:14.208Z,56
2023-07-23T11:06:21.334Z,56
2023-07-23T11:07:28.461Z,55
2023-07-23T11:08:35.531Z,56
2023-07-23T11:09:42.093Z,56
2023-07-23T11:10:49.281Z,56
2023-07-23T11:11:56.379Z,56
2023-07-23T11:13:03.503Z,56
2023-07-23T11:14:10.496Z,56
2023-07-23T11:15:17.125Z,56
2023-07-23T11:16:24.509Z,56
2023-07-23T11:17:32.101Z,56
2023-07-23T11:18:38.497Z,56
2023-07-23T11:19:45.539Z,56
2023-07-23T11:20:52.169Z,57
2023-07-23T11:21:59.258Z,57
2023-07-23T11:23:06.354Z,57
2023-07-23T11:24:13.543Z,57
2023-07-23T11:25:20.523Z,57
2023-07-23T11:26:27.124Z,58
2023-07-23T11:28:41.318Z,58
2023-07-23T11:29:48.441Z,58
2023-07-23T11:30:55.558Z,58
2023-07-23T11:32:02.107Z,58
2023-07-23T11:33:09.233Z,58
2023-07-23T11:34:16.360Z,58
2023-07-23T11:35:23.434Z,58
2023-07-23T11:36:30.592Z,57
2023-07-23T11:37:37.161Z,57
2023-07-23T11:38:44.254Z,57
2023-07-23T11:39:51.396Z,57
2023-07-23T11:40:58.572Z,57
2023-07-23T11:42:05.585Z,57
2023-07-23T11:43:12.127Z,58
2023-07-23T11:44:19.284Z,58
2023-07-23T11:45:26.698Z,58
2023-07-23T11:46:33.547Z,58
2023-07-23T11:47:40.597Z,58
2023-07-23T11:48:47.166Z,58
2023-07-23T11:49:54.290Z,57
2023-07-23T11:51:01.376Z,57
2023-07-23T11:52:08.457Z,56
2023-07-23T11:53:17.958Z,55
2023-07-23T11:54:22.161Z,55
2023-07-23T11:55:29.266Z,54
2023-07-23T11:56:36.401Z,54
2023-07-23T11:57:43.464Z,55
2023-07-23T11:58:50.607Z,54
2023-07-23T11:59:57.197Z,53
2023-07-23T12:01:04.304Z,53
2023-07-23T12:02:11.420Z,52
2023-07-23T12:03:18.554Z,52
2023-07-23T12:04:25.068Z,53
2023-07-23T12:05:32.155Z,53
2023-07-23T12:06:39.300Z,53
2023-07-23T12:07:46.428Z,54
2023-07-23T12:08:53.492Z,54
2023-07-23T12:10:00.098Z,54
2023-07-23T12:11:07.194Z,54
2023-07-23T12:12:14.305Z,54
2023-07-23T12:13:21.373Z,54
2023-07-23T12:14:28.561Z,54
2023-07-23T12:15:35.197Z,54
2023-07-23T12:16:42.218Z,54
2023-07-23T12:17:49.314Z,54
2023-07-23T12:18:56.440Z,54
2023-07-23T12:20:03.494Z,54
2023-07-23T12:21:10.105Z,54
2023-07-23T12:22:17.250Z,54
2023-07-23T12:23:24.354Z,54
2023-07-23T12:24:31.602Z,54
2023-07-23T12:25:38.521Z,55
2023-07-23T12:27:52.203Z,55
2023-07-23T12:28:59.335Z,55
2023-07-23T12:30:06.434Z,55
2023-07-23T12:32:20.124Z,55
2023-07-23T12:33:27.259Z,55
2023-07-23T12:34:34.349Z,54
2023-07-23T12:35:41.403Z,55
2023-07-23T12:36:48.545Z,55
2023-07-23T12:37:55.116Z,55
2023-07-23T12:39:02.201Z,55
2023-07-23T12:40:09.392Z,55
2023-07-23T12:41:16.500Z,55
2023-07-23T12:42:23.640Z,55
2023-07-23T12:43:30.114Z,55
2023-07-23T12:44:37.239Z,55
2023-07-23T12:45:44.372Z,55
2023-07-23T12:46:51.453Z,55
2023-07-23T12:47:58.638Z,55
2023-07-23T12:49:05.152Z,56
2023-07-23T12:50:12.230Z,56
2023-07-23T12:51:19.398Z,55
2023-07-23T12:52:26.439Z,55
2023-07-23T12:53:33.558Z,55
2023-07-23T12:54:40.174Z,55
2023-07-23T12:55:47.273Z,55
2023-07-23T12:56:54.443Z,55
2023-07-23T12:58:01.458Z,55
2023-07-23T12:59:08.060Z,55
2023-07-23T13:00:15.200Z,55
2023-07-23T13:01:22.327Z,55
2023-07-23T13:02:29.391Z,55
2023-07-23T13:03:36.584Z,55
2023-07-23T13:04:43.573Z,55
2023-07-23T13:05:50.217Z,56
2023-07-23T13:06:57.257Z,56
2023-07-23T13:08:04.349Z,56
2023-07-23T13:09:11.444Z,57
2023-07-23T13:10:18.069Z,56
2023-07-23T13:11:25.246Z,56
2023-07-23T13:12:32.266Z,56
2023-07-23T13:13:40.384Z,55
2023-07-23T13:14:46.632Z,55
2023-07-23T13:15:53.082Z,55
2023-07-23T13:17:00.270Z,55
2023-07-23T13:18:07.373Z,55
2023-07-23T13:19:14.411Z,54
2023-07-23T13:20:21.470Z,55
2023-07-23T13:21:28.084Z,55
2023-07-23T13:22:35.224Z,55
2023-07-23T13:23:42.261Z,55
2023-07-23T13:24:49.430Z,55
2023-07-23T13:25:56.518Z,56
2023-07-23T13:27:03.071Z,56
2023-07-23T13:28:10.167Z,56
2023-07-23T13:29:17.343Z,56
2023-07-23T13:30:24.372Z,57
2023-07-23T13:31:31.472Z,57
2023-07-23T13:32:38.089Z,57
2023-07-23T13:33:45.292Z,57
2023-07-23T13:35:59.467Z,57
2023-07-23T13:37:06.531Z,57
2023-07-23T13:38:13.073Z,57
2023-07-23T13:39:20.246Z,58
2023-07-23T13:40:27.397Z,58
2023-07-23T13:41:34.391Z,58
2023-07-23T13:42:41.520Z,58
2023-07-23T13:43:48.105Z,57
2023-07-23T13:44:55.187Z,57
2023-07-23T13:46:02.364Z,57
2023-07-23T13:47:09.459Z,57
2023-07-23T13:48:16.562Z,57
2023-07-23T13:49:23.140Z,57
2023-07-23T13:50:41.393Z,57
2023-07-23T13:51:37.338Z,57
2023-07-23T13:52:44.410Z,57
2023-07-23T13:53:51.004Z,56
2023-07-23T13:56:05.275Z,56
2023-07-23T13:57:12.325Z,56
2023-07-23T13:58:19.457Z,57
2023-07-23T13:59:26.564Z,57
2023-07-23T14:00:33.175Z,57
2023-07-23T14:01:40.268Z,57
2023-07-23T14:02:47.525Z,57
2023-07-23T14:03:54.437Z,58
2023-07-23T14:05:01.545Z,58
2023-07-23T14:07:15.248Z,58
2023-07-23T14:08:22.517Z,58
2023-07-23T14:09:29.463Z,58
2023-07-23T14:10:36.049Z,58
2023-07-23T14:11:43.129Z,58
2023-07-23T14:12:50.294Z,59
2023-07-23T14:13:57.380Z,58
2023-07-23T14:15:04.442Z,58
2023-07-23T14:16:11.142Z,58
2023-07-23T14:17:18.256Z,58
2023-07-23T14:18:25.260Z,59
2023-07-23T14:19:32.358Z,58
2023-07-23T14:20:39.491Z,58
2023-07-23T14:21:46.082Z,58
2023-07-23T14:22:53.130Z,57
2023-07-23T14:24:00.279Z,57
2023-07-23T14:25:07.407Z,58
2023-07-23T14:26:14.489Z,58
2023-07-23T14:27:21.147Z,58
2023-07-23T14:28:28.163Z,58
2023-07-23T14:29:35.284Z,58
2023-07-23T14:30:42.440Z,58
2023-07-23T14:31:49.486Z,58
2023-07-23T14:32:56.073Z,58
2023-07-23T14:34:03.150Z,58
2023-07-23T14:35:10.288Z,58
2023-07-23T14:36:17.429Z,58
2023-07-23T14:37:24.453Z,58
2023-07-23T14:39:38.184Z,59
2023-07-23T14:40:45.310Z,58
2023-07-23T14:41:52.368Z,58
2023-07-23T14:42:59.508Z,58
2023-07-23T14:44:06.093Z,58
2023-07-23T14:45:13.161Z,58
2023-07-23T14:46:20.347Z,58
2023-07-23T14:47:27.425Z,58
2023-07-23T14:48:34.498Z,58
2023-07-23T14:49:41.078Z,58
2023-07-23T14:50:48.223Z,58
2023-07-23T14:51:55.370Z,58
2023-07-23T14:53:02.393Z,58
2023-07-23T14:54:09.520Z,58
2023-07-23T14:55:16.125Z,59
2023-07-23T14:56:23.266Z,59
2023-07-23T14:57:30.358Z,59
2023-07-23T14:58:37.429Z,58
2023-07-23T14:59:44.501Z,58
2023-07-23T15:00:51.100Z,58
2023-07-23T15:01:58.322Z,58
2023-07-23T15:03:05.392Z,58
2023-07-23T15:04:12.458Z,58
2023-07-23T15:05:19.563Z,58
2023-07-23T15:06:26.138Z,58
2023-07-23T15:07:33.236Z,58
2023-07-23T15:08:40.323Z,58
2023-07-23T15:09:47.433Z,58
2023-07-23T15:10:54.508Z,59
2023-07-23T15:12:01.120Z,59
2023-07-23T15:13:08.318Z,59
2023-07-23T15:14:15.335Z,59
2023-07-23T15:15:22.515Z,59
2023-07-23T15:16:29.104Z,59
2023-07-23T15:17:36.151Z,59
2023-07-23T15:19:50.343Z,59
2023-07-23T15:20:57.451Z,59
2023-07-23T15:22:04.068Z,59
2023-07-23T15:23:11.142Z,59
2023-07-23T15:24:18.304Z,59
2023-07-23T15:25:25.353Z,59
2023-07-23T15:26:32.505Z,59
2023-07-23T15:27:39.095Z,59
2023-07-23T15:28:46.162Z,59
2023-07-23T15:29:53.232Z,59
2023-07-23T15:31:00.369Z,59
2023-07-23T15:32:07.477Z,59
2023-07-23T15:33:14.091Z,59
2023-07-23T15:34:21.196Z,58
2023-07-23T15:35:28.385Z,58
2023-07-23T15:36:35.381Z,58
2023-07-23T15:37:42.439Z,58
2023-07-23T15:38:49.309Z,58
2023-07-23T15:39:56.167Z,58
2023-07-23T15:41:03.390Z,58
2023-07-23T15:43:17.500Z,58
2023-07-23T15:44:24.116Z,58
2023-07-23T15:45:31.158Z,58
2023-07-23T15:46:39.768Z,58
2023-07-23T15:47:45.418Z,58
2023-07-23T15:49:07.868Z,58
2023-07-23T15:50:02.371Z,58
2023-07-23T15:51:13.717Z,59
2023-07-23T15:52:13.599Z,59
2023-07-23T15:53:22.451Z,59
2023-07-23T15:54:27.514Z,60
2023-07-23T15:55:34.117Z,60
2023-07-23T15:56:41.150Z,60
2023-07-23T15:57:48.299Z,60
2023-07-23T15:59:10.739Z,60
2023-07-23T16:01:09.082Z,60
2023-07-23T16:02:16.257Z,60
2023-07-23T16:03:23.494Z,60
2023-07-23T16:04:30.400Z,60
2023-07-23T16:05:37.516Z,60
2023-07-23T16:06:44.073Z,59
2023-07-23T16:07:51.178Z,60
2023-07-23T16:08:58.308Z,60
2023-07-23T16:10:05.439Z,60
2023-07-23T16:11:12.492Z,60
2023-07-23T16:12:19.113Z,60
2023-07-23T16:13:26.211Z,60
2023-07-23T16:14:33.309Z,60
2023-07-23T16:15:40.469Z,60
2023-07-23T16:16:47.046Z,60
2023-07-23T16:17:54.207Z,60
2023-07-23T16:19:01.193Z,60
2023-07-23T16:20:08.324Z,60
2023-07-23T16:21:15.444Z,60
2023-07-23T16:22:22.038Z,59
2023-07-23T16:23:29.201Z,59
2023-07-23T16:25:43.296Z,60
2023-07-23T16:26:50.539Z,60
2023-07-23T16:27:57.095Z,60